Time;durP1;ratioP1;P1;durP2;ratioP2;P2;SDS_P1;SDS_P2;PMS_P1;PMS_P2;Temp;Humidity;BMP_temperature;BMP_pressure;BME280_temperature;BME280_humidity;BME280_pressure;Samples;Min_cycle;Max_cycle;Signal;HPM_P1;HPM_P2
2021/08/15 00:02:04;;;;;;;6.13;4.45;;;;;;;;;;4976446;28;20054;-70
2021/08/15 00:04:30;;;;;;;9.23;4.75;;;;;;;;;;4981431;28;20054;-70
2021/08/15 00:06:56;;;;;;;9.73;4.78;;;;;;;;;;4981627;28;20490;-71
2021/08/15 00:09:22;;;;;;;7.88;4.50;;;;;;;;;;4975342;28;20038;-70
2021/08/15 00:11:48;;;;;;;9.13;4.97;;;;;;;;;;4987011;28;20589;-71
2021/08/15 00:14:14;;;;;;;8.73;5.18;;;;;;;;;;4984582;28;20086;-71
2021/08/15 00:16:40;;;;;;;10.68;5.20;;;;;;;;;;4984000;28;20389;-70
2021/08/15 00:19:06;;;;;;;9.20;4.90;;;;;;;;;;4985436;28;20129;-71
2021/08/15 00:21:33;;;;;;;7.85;4.55;;;;;;;;;;4980412;28;20031;-71
2021/08/15 00:23:59;;;;;;;10.40;4.75;;;;;;;;;;4987678;28;20045;-71
2021/08/15 00:26:25;;;;;;;13.45;5.70;;;;;;;;;;4980463;28;20037;-70
2021/08/15 00:28:51;;;;;;;8.75;4.97;;;;;;;;;;4981592;28;20027;-70
2021/08/15 00:31:17;;;;;;;9.27;5.32;;;;;;;;;;4982792;28;20557;-70
2021/08/15 00:33:43;;;;;;;9.77;5.47;;;;;;;;;;4986083;28;20535;-70
2021/08/15 00:36:09;;;;;;;11.68;5.50;;;;;;;;;;4977676;28;20026;-70
2021/08/15 00:38:35;;;;;;;11.88;5.00;;;;;;;;;;4986722;28;20500;-70
2021/08/15 00:41:02;;;;;;;13.13;5.28;;;;;;;;;;4985062;28;20034;-70
2021/08/15 00:43:31;;;;;;;9.85;5.07;;;;;;;;;;4985706;28;20031;-70
2021/08/15 00:45:57;;;;;;;6.13;4.82;;;;;;;;;;4985366;28;20030;-70
2021/08/15 00:48:23;;;;;;;11.98;4.75;;;;;;;;;;4978879;28;20654;-70
2021/08/15 00:50:49;;;;;;;7.68;4.65;;;;;;;;;;4982140;28;20028;-70
2021/08/15 00:53:15;;;;;;;7.43;4.80;;;;;;;;;;4974560;28;20041;-71
2021/08/15 00:55:41;;;;;;;6.80;4.22;;;;;;;;;;4985183;28;20049;-71
2021/08/15 00:58:07;;;;;;;9.65;5.13;;;;;;;;;;4994293;28;20104;-70
2021/08/15 01:00:33;;;;;;;9.07;4.80;;;;;;;;;;4982102;28;20707;-70
2021/08/15 01:03:00;;;;;;;11.07;5.25;;;;;;;;;;4983882;28;20473;-70
2021/08/15 01:05:26;;;;;;;7.43;5.18;;;;;;;;;;4983904;28;20129;-70
2021/08/15 01:07:52;;;;;;;11.18;4.72;;;;;;;;;;4984225;28;20608;-70
2021/08/15 01:10:18;;;;;;;7.65;4.95;;;;;;;;;;4982682;28;20742;-70
2021/08/15 01:12:45;;;;;;;10.55;5.05;;;;;;;;;;4984986;28;20023;-71
2021/08/15 01:15:11;;;;;;;9.70;4.90;;;;;;;;;;4982591;28;20031;-70
2021/08/15 01:17:37;;;;;;;9.52;4.57;;;;;;;;;;4986076;28;20433;-70
2021/08/15 01:20:03;;;;;;;6.60;4.65;;;;;;;;;;4985578;28;20035;-70
2021/08/15 01:22:33;;;;;;;8.82;5.25;;;;;;;;;;4982322;28;20054;-70
2021/08/15 01:25:05;;;;;;;7.85;4.38;;;;;;;;;;4975583;28;20039;-70
2021/08/15 01:27:31;;;;;;;;;;;;;;;;;;4989101;28;20058;-70
2021/08/15 01:29:57;;;;;;;6.55;4.13;;;;;;;;;;4978188;28;19953;-70
2021/08/15 01:32:23;;;;;;;8.05;4.30;;;;;;;;;;4984688;28;20026;-70
2021/08/15 01:34:49;;;;;;;8.63;4.93;;;;;;;;;;4983937;28;20030;-70
2021/08/15 01:37:15;;;;;;;11.70;5.30;;;;;;;;;;4979232;28;20104;-70
2021/08/15 01:39:44;;;;;;;10.80;4.68;;;;;;;;;;4986286;28;20077;-71
2021/08/15 01:42:10;;;;;;;10.13;5.05;;;;;;;;;;4981612;28;20041;-70
2021/08/15 01:44:36;;;;;;;9.07;4.05;;;;;;;;;;4986217;28;20035;-70
2021/08/15 01:47:02;;;;;;;7.07;4.28;;;;;;;;;;4990722;28;20053;-71
2021/08/15 01:49:28;;;;;;;6.22;4.07;;;;;;;;;;4985533;28;20030;-70
2021/08/15 01:51:54;;;;;;;6.80;4.43;;;;;;;;;;5005642;28;20440;-70
2021/08/15 01:54:20;;;;;;;8.10;3.95;;;;;;;;;;4988040;28;20125;-71
2021/08/15 01:56:45;;;;;;;9.93;4.10;;;;;;;;;;4990867;28;20568;-71
2021/08/15 01:59:11;;;;;;;9.80;4.45;;;;;;;;;;4988423;28;20330;-71
2021/08/15 02:01:37;;;;;;;10.82;4.55;;;;;;;;;;4989542;28;20026;-70
2021/08/15 02:04:03;;;;;;;7.82;4.47;;;;;;;;;;4987001;28;20034;-71
2021/08/15 02:06:29;;;;;;;10.15;4.10;;;;;;;;;;4989400;28;20034;-71
2021/08/15 02:08:55;;;;;;;10.05;4.50;;;;;;;;;;4983911;28;20027;-71
2021/08/15 02:11:21;;;;;;;7.47;3.67;;;;;;;;;;4979245;28;20505;-71
2021/08/15 02:13:47;;;;;;;7.85;3.67;;;;;;;;;;4977683;28;20023;-71
2021/08/15 02:16:14;;;;;;;9.60;4.47;;;;;;;;;;4984462;28;20034;-71
2021/08/15 02:18:40;;;;;;;8.00;4.10;;;;;;;;;;4989442;28;20056;-71
2021/08/15 02:21:06;;;;;;;7.57;4.15;;;;;;;;;;4988720;28;20030;-71
2021/08/15 02:23:32;;;;;;;10.40;4.35;;;;;;;;;;4988217;28;20030;-70
2021/08/15 02:25:58;;;;;;;8.98;3.85;;;;;;;;;;4990243;28;20034;-70
2021/08/15 02:28:24;;;;;;;5.95;3.65;;;;;;;;;;4983158;28;20025;-71
2021/08/15 02:30:50;;;;;;;7.72;3.90;;;;;;;;;;4985315;28;20030;-71
2021/08/15 02:33:16;;;;;;;6.05;3.40;;;;;;;;;;4987386;28;20029;-71
2021/08/15 02:35:42;;;;;;;7.55;3.97;;;;;;;;;;4983788;28;20045;-71
2021/08/15 02:38:08;;;;;;;9.07;4.18;;;;;;;;;;4979228;28;20029;-71
2021/08/15 02:40:34;;;;;;;9.55;4.65;;;;;;;;;;4986304;28;20444;-71
2021/08/15 02:43:00;;;;;;;8.98;4.05;;;;;;;;;;4983798;28;20061;-70
2021/08/15 02:45:26;;;;;;;9.07;4.32;;;;;;;;;;4990553;28;20485;-71
2021/08/15 02:47:53;;;;;;;6.68;3.67;;;;;;;;;;4976270;28;20027;-71
2021/08/15 02:50:19;;;;;;;7.72;4.32;;;;;;;;;;4986299;28;20077;-71
2021/08/15 02:52:45;;;;;;;7.68;4.00;;;;;;;;;;4990166;28;20023;-71
2021/08/15 02:55:11;;;;;;;7.75;4.20;;;;;;;;;;4988376;28;20106;-70
2021/08/15 02:57:37;;;;;;;9.73;3.90;;;;;;;;;;4983481;28;20039;-70
2021/08/15 03:00:07;;;;;;;10.18;4.80;;;;;;;;;;4985445;28;20137;-71
2021/08/15 03:02:33;;;;;;;9.27;3.92;;;;;;;;;;4987054;28;20023;-70
2021/08/15 03:04:59;;;;;;;10.48;4.07;;;;;;;;;;4977895;28;20125;-71
2021/08/15 03:07:26;;;;;;;5.68;3.80;;;;;;;;;;4986234;28;20030;-71
2021/08/15 03:09:52;;;;;;;7.10;3.72;;;;;;;;;;4984856;28;20108;-71
2021/08/15 03:12:18;;;;;;;8.05;4.25;;;;;;;;;;4988005;28;20417;-71
2021/08/15 03:14:44;;;;;;;8.43;4.55;;;;;;;;;;4984387;28;20030;-71
2021/08/15 03:17:11;;;;;;;7.22;4.63;;;;;;;;;;4981118;28;20037;-71
2021/08/15 03:19:37;;;;;;;5.88;3.60;;;;;;;;;;4981326;28;20088;-71
2021/08/15 03:22:03;;;;;;;7.15;4.38;;;;;;;;;;4984265;28;20149;-71
2021/08/15 03:24:29;;;;;;;7.43;3.97;;;;;;;;;;4988387;28;20065;-70
2021/08/15 03:26:55;;;;;;;8.75;4.25;;;;;;;;;;4977211;28;20030;-70
2021/08/15 03:29:21;;;;;;;7.80;5.05;;;;;;;;;;4984852;28;20038;-71
2021/08/15 03:31:47;;;;;;;12.00;4.32;;;;;;;;;;4987105;28;20152;-71
2021/08/15 03:34:13;;;;;;;8.45;4.15;;;;;;;;;;4981888;28;20030;-71
2021/08/15 03:36:39;;;;;;;8.05;4.45;;;;;;;;;;4979008;28;20073;-71
2021/08/15 03:39:06;;;;;;;5.72;4.20;;;;;;;;;;4987316;28;20500;-70
2021/08/15 03:41:32;;;;;;;8.95;4.10;;;;;;;;;;4987646;28;20386;-71
2021/08/15 03:43:58;;;;;;;8.27;4.13;;;;;;;;;;4988812;28;20041;-71
2021/08/15 03:46:24;;;;;;;9.63;4.63;;;;;;;;;;4986458;28;20084;-71
2021/08/15 03:48:50;;;;;;;9.75;4.15;;;;;;;;;;4982316;28;20105;-71
2021/08/15 03:51:16;;;;;;;6.10;3.95;;;;;;;;;;4990435;28;20142;-71
2021/08/15 03:53:42;;;;;;;8.05;4.50;;;;;;;;;;4983812;28;20018;-71
2021/08/15 03:56:08;;;;;;;10.55;4.90;;;;;;;;;;4987993;28;20504;-70
2021/08/15 03:58:34;;;;;;;6.45;4.28;;;;;;;;;;4986587;28;20030;-71
2021/08/15 04:01:00;;;;;;;10.07;4.18;;;;;;;;;;4978669;28;20272;-70
2021/08/15 04:03:26;;;;;;;9.32;4.43;;;;;;;;;;4986015;28;20041;-71
2021/08/15 04:05:55;;;;;;;7.90;4.13;;;;;;;;;;4984855;28;20026;-70
2021/08/15 04:08:21;;;;;;;9.88;4.07;;;;;;;;;;4981910;28;20018;-70
2021/08/15 04:10:47;;;;;;;8.05;4.68;;;;;;;;;;4986287;28;20517;-71
2021/08/15 04:13:13;;;;;;;9.93;5.00;;;;;;;;;;4986808;28;20037;-71
2021/08/15 04:15:39;;;;;;;9.43;4.25;;;;;;;;;;4986868;28;20030;-70
2021/08/15 04:18:05;;;;;;;7.95;4.35;;;;;;;;;;4985536;28;20029;-70
2021/08/15 04:20:31;;;;;;;9.05;4.82;;;;;;;;;;4983700;28;20382;-71
2021/08/15 04:22:57;;;;;;;9.27;4.80;;;;;;;;;;4984015;28;20026;-71
2021/08/15 04:25:23;;;;;;;6.72;4.10;;;;;;;;;;4977875;28;20030;-71
2021/08/15 04:27:49;;;;;;;9.70;4.05;;;;;;;;;;4980775;28;20444;-71
2021/08/15 04:30:15;;;;;;;7.43;4.22;;;;;;;;;;4987936;28;20052;-71
2021/08/15 04:32:41;;;;;;;5.15;3.58;;;;;;;;;;4986565;28;20046;-70
2021/08/15 04:35:07;;;;;;;7.75;3.78;;;;;;;;;;4983144;28;20092;-71
2021/08/15 04:37:33;;;;;;;9.55;4.05;;;;;;;;;;4978064;28;20038;-70
2021/08/15 04:39:59;;;;;;;7.60;4.47;;;;;;;;;;4980471;28;20022;-71
2021/08/15 04:42:25;;;;;;;7.72;4.30;;;;;;;;;;4980906;28;20109;-71
2021/08/15 04:44:51;;;;;;;6.95;3.90;;;;;;;;;;4978603;28;20456;-71
2021/08/15 04:47:17;;;;;;;5.15;3.90;;;;;;;;;;4980833;28;20019;-71
2021/08/15 04:49:42;;;;;;;5.93;3.72;;;;;;;;;;4983828;28;20429;-71
2021/08/15 04:52:08;;;;;;;6.30;3.80;;;;;;;;;;4993625;28;20046;-70
2021/08/15 04:54:34;;;;;;;7.35;3.97;;;;;;;;;;4986506;28;20396;-71
2021/08/15 04:57:00;;;;;;;6.18;4.13;;;;;;;;;;4984803;28;20069;-71
2021/08/15 04:59:27;;;;;;;7.10;4.28;;;;;;;;;;4990964;28;20393;-71
2021/08/15 05:01:53;;;;;;;5.60;3.42;;;;;;;;;;4984173;28;20520;-71
2021/08/15 05:04:19;;;;;;;8.93;4.38;;;;;;;;;;4986970;28;20034;-70
2021/08/15 05:06:48;;;;;;;10.07;4.20;;;;;;;;;;4986270;28;20036;-71
2021/08/15 05:09:14;;;;;;;8.35;4.00;;;;;;;;;;4985466;28;20046;-71
2021/08/15 05:11:40;;;;;;;9.02;3.67;;;;;;;;;;4982896;28;20110;-71
2021/08/15 05:14:06;;;;;;;10.23;4.05;;;;;;;;;;4986134;28;20034;-72
2021/08/15 05:16:32;;;;;;;11.23;3.83;;;;;;;;;;4981117;28;20068;-71
2021/08/15 05:18:58;;;;;;;10.02;3.58;;;;;;;;;;4988040;28;20125;-70
2021/08/15 05:21:24;;;;;;;9.57;3.33;;;;;;;;;;4978319;28;20351;-70
2021/08/15 05:23:50;;;;;;;10.38;4.00;;;;;;;;;;4981416;28;20113;-71
2021/08/15 05:26:16;;;;;;;7.15;3.40;;;;;;;;;;4976274;28;20068;-70
2021/08/15 05:28:42;;;;;;;11.15;3.60;;;;;;;;;;4983208;28;20496;-71
2021/08/15 05:31:08;;;;;;;9.55;4.10;;;;;;;;;;4981413;28;20026;-71
2021/08/15 05:33:34;;;;;;;10.82;3.25;;;;;;;;;;4980337;28;20022;-70
2021/08/15 05:36:00;;;;;;;8.07;3.50;;;;;;;;;;4983719;28;20482;-71
2021/08/15 05:38:26;;;;;;;9.32;3.13;;;;;;;;;;4982950;28;20050;-70
2021/08/15 05:40:52;;;;;;;12.95;3.30;;;;;;;;;;4976692;28;20030;-70
2021/08/15 05:43:18;;;;;;;8.60;3.33;;;;;;;;;;4973802;28;20384;-71
2021/08/15 05:45:47;;;;;;;10.10;3.03;;;;;;;;;;4986815;28;20027;-71
2021/08/15 05:48:12;;;;;;;9.25;3.70;;;;;;;;;;4976656;28;20034;-71
2021/08/15 05:50:38;;;;;;;8.57;3.20;;;;;;;;;;4990781;28;20037;-71
2021/08/15 05:53:04;;;;;;;12.43;3.40;;;;;;;;;;4998031;28;20397;-71
2021/08/15 05:55:30;;;;;;;9.20;3.08;;;;;;;;;;4986644;28;20520;-72
2021/08/15 05:57:56;;;;;;;10.25;3.53;;;;;;;;;;4986544;28;20465;-72
2021/08/15 06:00:22;;;;;;;7.70;3.28;;;;;;;;;;4986493;28;20030;-71
2021/08/15 06:02:51;;;;;;;9.88;3.28;;;;;;;;;;4985239;28;20022;-71
2021/08/15 06:05:17;;;;;;;11.00;3.85;;;;;;;;;;4983563;28;20033;-72
2021/08/15 06:07:43;;;;;;;9.52;3.70;;;;;;;;;;4982187;28;20421;-71
2021/08/15 06:10:09;;;;;;;12.02;3.80;;;;;;;;;;4983795;28;20054;-72
2021/08/15 06:12:35;;;;;;;10.20;3.20;;;;;;;;;;4987849;28;20481;-71
2021/08/15 06:15:02;;;;;;;9.32;3.60;;;;;;;;;;4978951;28;20035;-71
2021/08/15 06:17:28;;;;;;;13.00;3.13;;;;;;;;;;4980418;28;20045;-71
2021/08/15 06:19:53;;;;;;;4.22;2.58;;;;;;;;;;4984806;28;20031;-71
2021/08/15 06:22:20;;;;;;;6.20;2.75;;;;;;;;;;4980101;28;20030;-71
2021/08/15 06:24:46;;;;;;;4.97;2.83;;;;;;;;;;4983296;28;20050;-71
2021/08/15 06:27:12;;;;;;;13.65;3.20;;;;;;;;;;4983708;28;20018;-71
2021/08/15 06:29:38;;;;;;;6.47;2.65;;;;;;;;;;4984220;28;20062;-71
2021/08/15 06:32:04;;;;;;;4.88;2.78;;;;;;;;;;4983808;28;20026;-72
2021/08/15 06:34:30;;;;;;;8.57;2.97;;;;;;;;;;4985080;28;20035;-72
2021/08/15 06:36:56;;;;;;;7.47;2.97;;;;;;;;;;4986662;28;20030;-72
2021/08/15 06:39:22;;;;;;;11.43;2.75;;;;;;;;;;4985670;28;20704;-72
2021/08/15 06:41:48;;;;;;;11.70;2.80;;;;;;;;;;4989355;28;20026;-72
2021/08/15 06:44:14;;;;;;;7.78;3.20;;;;;;;;;;4982699;28;20125;-72
2021/08/15 06:46:40;;;;;;;10.85;3.40;;;;;;;;;;4987925;28;20027;-72
2021/08/15 06:49:06;;;;;;;6.90;3.17;;;;;;;;;;4985776;28;20034;-72
2021/08/15 06:51:32;;;;;;;7.18;3.10;;;;;;;;;;4981677;28;20077;-71
2021/08/15 06:53:58;;;;;;;10.32;3.08;;;;;;;;;;4989275;28;20401;-71
2021/08/15 06:56:24;;;;;;;8.13;3.00;;;;;;;;;;4991113;28;20034;-71
2021/08/15 06:58:50;;;;;;;11.73;3.15;;;;;;;;;;4994663;28;20041;-71
2021/08/15 07:01:17;;;;;;;7.45;3.00;;;;;;;;;;4989763;28;20122;-71
2021/08/15 07:03:42;;;;;;;10.55;4.10;;;;;;;;;;4980759;28;20121;-71
2021/08/15 07:06:08;;;;;;;7.03;3.15;;;;;;;;;;4989482;28;20113;-71
2021/08/15 07:08:34;;;;;;;6.78;2.88;;;;;;;;;;4981007;28;20031;-71
2021/08/15 07:11:00;;;;;;;7.88;3.10;;;;;;;;;;4980625;28;20046;-71
2021/08/15 07:13:26;;;;;;;10.13;3.03;;;;;;;;;;4986049;28;20061;-71
2021/08/15 07:15:53;;;;;;;9.50;3.30;;;;;;;;;;4983331;28;20058;-71
2021/08/15 07:18:19;;;;;;;10.55;3.20;;;;;;;;;;4988211;28;20033;-71
2021/08/15 07:20:48;;;;;;;9.18;3.05;;;;;;;;;;4980271;28;20280;-71
2021/08/15 07:23:14;;;;;;;7.03;3.70;;;;;;;;;;4988313;28;20026;-71
2021/08/15 07:25:40;;;;;;;8.10;2.90;;;;;;;;;;4988905;28;20396;-72
2021/08/15 07:28:06;;;;;;;8.50;2.95;;;;;;;;;;4988056;28;20026;-71
2021/08/15 07:30:35;;;;;;;9.75;2.83;;;;;;;;;;4985563;28;20149;-71
2021/08/15 07:33:03;;;;;;;10.60;3.15;;;;;;;;;;4983203;28;20474;-71
2021/08/15 07:35:30;;;;;;;9.23;3.50;;;;;;;;;;4985043;28;20030;-70
2021/08/15 07:37:56;;;;;;;10.70;3.70;;;;;;;;;;4985601;28;20393;-72
2021/08/15 07:40:22;;;;;;;7.95;3.42;;;;;;;;;;4984340;28;20465;-73
2021/08/15 07:42:52;;;;;;;5.68;2.83;;;;;;;;;;4986115;28;20034;-73
2021/08/15 07:45:18;;;;;;;9.45;3.10;;;;;;;;;;4988771;28;20097;-73
2021/08/15 07:47:44;;;;;;;5.53;2.78;;;;;;;;;;4981098;28;20726;-73
2021/08/15 07:50:10;;;;;;;10.05;3.10;;;;;;;;;;4985667;28;20045;-77
2021/08/15 07:52:36;;;;;;;6.25;2.80;;;;;;;;;;4988217;28;20022;-74
2021/08/15 07:55:03;;;;;;;10.63;3.10;;;;;;;;;;4981354;28;20049;-74
2021/08/15 07:57:30;;;;;;;8.23;3.28;;;;;;;;;;4980825;28;20477;-74
2021/08/15 07:59:56;;;;;;;8.57;3.25;;;;;;;;;;4989903;28;20026;-74
2021/08/15 08:02:22;;;;;;;5.22;2.58;;;;;;;;;;4988037;28;20031;-74
2021/08/15 08:04:50;;;;;;;6.80;3.00;;;;;;;;;;4987755;28;20034;-76
2021/08/15 08:07:19;;;;;;;8.40;2.97;;;;;;;;;;4980816;28;20030;-73
2021/08/15 08:09:44;;;;;;;11.77;3.05;;;;;;;;;;4984157;28;20038;-74
2021/08/15 08:12:10;;;;;;;5.35;3.15;;;;;;;;;;4981136;28;20099;-81
2021/08/15 08:14:36;;;;;;;7.53;2.95;;;;;;;;;;4987436;28;20029;-73
2021/08/15 08:17:02;;;;;;;9.13;2.97;;;;;;;;;;4984119;28;20026;-75
2021/08/15 08:19:28;;;;;;;7.22;2.72;;;;;;;;;;4985053;28;20066;-75
2021/08/15 08:21:54;;;;;;;5.82;2.97;;;;;;;;;;4983763;28;20034;-74
2021/08/15 08:24:20;;;;;;;4.53;2.63;;;;;;;;;;4986171;28;20034;-75
2021/08/15 08:26:46;;;;;;;7.45;3.08;;;;;;;;;;4988023;28;20030;-73
2021/08/15 08:29:12;;;;;;;7.10;3.00;;;;;;;;;;4987322;28;20076;-75
2021/08/15 08:31:38;;;;;;;5.45;2.90;;;;;;;;;;4982049;28;20022;-73
2021/08/15 08:34:04;;;;;;;7.57;3.22;;;;;;;;;;4983299;28;20565;-74
2021/08/15 08:36:30;;;;;;;9.30;2.90;;;;;;;;;;4982884;28;20068;-74
2021/08/15 08:38:56;;;;;;;6.47;3.00;;;;;;;;;;4984355;28;20105;-74
2021/08/15 08:41:21;;;;;;;7.63;3.00;;;;;;;;;;4985852;28;20121;-74
2021/08/15 08:43:48;;;;;;;8.65;3.10;;;;;;;;;;4985409;28;20034;-74
2021/08/15 08:46:17;;;;;;;6.70;3.33;;;;;;;;;;4984993;28;20025;-73
2021/08/15 08:48:43;;;;;;;5.78;2.85;;;;;;;;;;4988234;28;20064;-73
2021/08/15 08:51:09;;;;;;;7.70;3.00;;;;;;;;;;4990525;28;20032;-73
2021/08/15 08:53:35;;;;;;;5.90;3.03;;;;;;;;;;4980706;28;20105;-73
2021/08/15 08:56:02;;;;;;;7.65;3.33;;;;;;;;;;4979314;28;20113;-73
2021/08/15 08:58:28;;;;;;;8.52;2.90;;;;;;;;;;4988209;28;20512;-73
2021/08/15 09:00:54;;;;;;;4.93;2.92;;;;;;;;;;4982779;28;20275;-72
2021/08/15 09:03:20;;;;;;;8.93;3.20;;;;;;;;;;4977131;28;20485;-73
2021/08/15 09:05:53;;;;;;;6.28;2.85;;;;;;;;;;4977661;28;20114;-73
2021/08/15 09:08:30;;;;;;;7.93;2.95;;;;;;;;;;4983253;28;20062;-73
2021/08/15 09:11:15;;;;;;;6.00;2.45;;;;;;;;;;4983224;28;20551;-74
2021/08/15 09:13:42;;;;;;;7.68;2.88;;;;;;;;;;4974157;28;20038;-74
2021/08/15 09:16:08;;;;;;;6.97;2.58;;;;;;;;;;4983117;28;20049;-74
2021/08/15 09:18:34;;;;;;;7.28;2.65;;;;;;;;;;4977144;28;20539;-74
2021/08/15 09:21:00;;;;;;;7.78;2.78;;;;;;;;;;4982822;28;20038;-74
2021/08/15 09:23:26;;;;;;;8.50;3.20;;;;;;;;;;4983347;28;20113;-74
2021/08/15 09:26:11;;;;;;;6.82;3.25;;;;;;;;;;4988326;28;20052;-72
2021/08/15 09:28:37;;;;;;;7.40;3.22;;;;;;;;;;4982181;28;20029;-73
2021/08/15 09:31:20;;;;;;;8.25;3.30;;;;;;;;;;4982519;28;20023;-73
2021/08/15 09:33:46;;;;;;;6.13;2.80;;;;;;;;;;4984470;28;20393;-73
2021/08/15 09:36:11;;;;;;;8.65;3.97;;;;;;;;;;4982047;28;20026;-73
2021/08/15 09:38:42;;;;;;;6.07;2.83;;;;;;;;;;4983157;28;20026;-72
2021/08/15 09:41:21;;;;;;;9.70;3.25;;;;;;;;;;4979339;28;20041;-72
2021/08/15 09:43:47;;;;;;;5.63;3.00;;;;;;;;;;4974436;28;20129;-73
2021/08/15 09:46:13;;;;;;;6.68;2.85;;;;;;;;;;4981489;28;20442;-73
2021/08/15 09:48:42;;;;;;;5.40;2.80;;;;;;;;;;4974843;28;20038;-74
2021/08/15 09:51:22;;;;;;;6.13;2.90;;;;;;;;;;4980829;28;20031;-74
2021/08/15 09:53:50;;;;;;;6.15;2.60;;;;;;;;;;4982487;28;20038;-74
2021/08/15 09:56:17;;;;;;;6.00;3.05;;;;;;;;;;4979311;28;20113;-73
2021/08/15 09:58:46;;;;;;;6.03;2.78;;;;;;;;;;4979174;28;20121;-74
2021/08/15 10:01:12;;;;;;;4.05;2.42;;;;;;;;;;4982526;28;20372;-74
2021/08/15 10:03:41;;;;;;;3.33;2.40;;;;;;;;;;4974602;28;20026;-73
2021/08/15 10:06:08;;;;;;;5.53;2.33;;;;;;;;;;4975186;28;20106;-74
2021/08/15 10:08:34;;;;;;;4.72;2.78;;;;;;;;;;4974827;28;20031;-74
2021/08/15 10:11:00;;;;;;;4.43;2.42;;;;;;;;;;4982246;28;20049;-74
2021/08/15 10:13:26;;;;;;;6.57;2.65;;;;;;;;;;4978626;28;20385;-75
2021/08/15 10:15:55;;;;;;;7.75;3.03;;;;;;;;;;4973008;28;20469;-74
2021/08/15 10:18:24;;;;;;;8.43;2.90;;;;;;;;;;4982959;28;20495;-74
2021/08/15 10:20:50;;;;;;;9.93;2.58;;;;;;;;;;4977130;28;20417;-72
2021/08/15 10:23:18;;;;;;;4.50;2.35;;;;;;;;;;4978405;28;20413;-74
2021/08/15 10:25:44;;;;;;;4.57;2.63;;;;;;;;;;4980928;28;20034;-74
2021/08/15 10:28:30;;;;;;;4.75;2.53;;;;;;;;;;4985694;28;20133;-74
2021/08/15 10:30:57;;;;;;;7.53;2.67;;;;;;;;;;4975566;28;20082;-74
2021/08/15 10:33:25;;;;;;;4.30;2.40;;;;;;;;;;4988244;28;20030;-72
2021/08/15 10:36:10;;;;;;;5.15;2.55;;;;;;;;;;4987054;28;20026;-73
2021/08/15 10:38:36;;;;;;;5.57;2.55;;;;;;;;;;4981566;28;20030;-73
2021/08/15 10:41:01;;;;;;;3.72;2.33;;;;;;;;;;4987939;28;20630;-73
2021/08/15 10:43:29;;;;;;;4.47;2.50;;;;;;;;;;4993461;28;20050;-75
2021/08/15 10:46:08;;;;;;;6.60;2.78;;;;;;;;;;4987762;28;20026;-76
2021/08/15 10:48:50;;;;;;;5.25;2.60;;;;;;;;;;4983722;28;20577;-76
2021/08/15 10:51:35;;;;;;;6.28;2.70;;;;;;;;;;4980506;28;20026;-78
2021/08/15 10:54:01;;;;;;;4.82;2.20;;;;;;;;;;4989397;28;20605;-76
2021/08/15 10:56:47;;;;;;;4.38;2.28;;;;;;;;;;4984155;28;20038;-74
2021/08/15 10:59:35;;;;;;;4.75;2.80;;;;;;;;;;4991224;28;20469;-74
2021/08/15 11:02:14;;;;;;;6.45;3.13;;;;;;;;;;4981717;28;20037;-76
2021/08/15 11:04:40;;;;;;;8.45;2.85;;;;;;;;;;4996066;28;20388;-75
2021/08/15 11:07:29;;;;;;;7.60;3.00;;;;;;;;;;4984320;28;20882;-75
2021/08/15 11:09:56;;;;;;;6.03;3.05;;;;;;;;;;4984620;28;20528;-75
2021/08/15 11:12:23;;;;;;;5.20;2.85;;;;;;;;;;4990570;28;20030;-75
2021/08/15 11:15:11;;;;;;;5.53;2.90;;;;;;;;;;4984928;28;20034;-75
2021/08/15 11:17:38;;;;;;;9.65;3.38;;;;;;;;;;4985123;28;20085;-75
2021/08/15 11:20:23;;;;;;;8.90;3.50;;;;;;;;;;4986796;28;20393;-75
2021/08/15 11:23:04;;;;;;;8.27;3.17;;;;;;;;;;4984533;28;20052;-72
2021/08/15 11:25:33;;;;;;;;;;;;;;;;;;4984010;28;20030;-76
2021/08/15 11:27:59;;;;;;;6.90;3.20;;;;;;;;;;4985948;28;19918;-75
2021/08/15 11:30:25;;;;;;;5.78;3.25;;;;;;;;;;4987632;28;20118;-75
2021/08/15 11:32:55;;;;;;;10.27;3.75;;;;;;;;;;4986840;28;20633;-75
2021/08/15 11:35:21;;;;;;;5.77;3.00;;;;;;;;;;4986382;28;20737;-74
2021/08/15 11:37:49;;;;;;;6.22;3.28;;;;;;;;;;4988082;28;20864;-74
2021/08/15 11:40:28;;;;;;;12.13;3.35;;;;;;;;;;4984667;28;20037;-75
2021/08/15 11:43:05;;;;;;;8.25;3.38;;;;;;;;;;4984703;28;20034;-75
2021/08/15 11:45:35;;;;;;;4.47;2.75;;;;;;;;;;4986140;28;20089;-75
2021/08/15 11:48:07;;;;;;;6.95;3.40;;;;;;;;;;4983630;28;20048;-75
2021/08/15 11:50:34;;;;;;;6.38;3.28;;;;;;;;;;4991666;28;20503;-75
2021/08/15 11:53:00;;;;;;;5.15;2.85;;;;;;;;;;4990160;28;21413;-76
2021/08/15 11:55:28;;;;;;;6.97;3.28;;;;;;;;;;4985072;28;20041;-75
2021/08/15 11:57:55;;;;;;;8.55;2.97;;;;;;;;;;4991250;28;20042;-76
2021/08/15 12:00:27;;;;;;;7.53;3.80;;;;;;;;;;4990685;28;20053;-72
2021/08/15 12:03:19;;;;;;;4.20;2.83;;;;;;;;;;4985782;28;20044;-75
2021/08/15 12:05:47;;;;;;;5.15;3.10;;;;;;;;;;4988858;28;20037;-75
2021/08/15 12:08:14;;;;;;;6.22;3.35;;;;;;;;;;4990526;28;20262;-75
2021/08/15 12:10:44;;;;;;;5.65;3.30;;;;;;;;;;4991288;28;20087;-75
2021/08/15 12:13:15;;;;;;;6.22;3.08;;;;;;;;;;4985898;28;20163;-76
2021/08/15 12:15:41;;;;;;;;;;;;;;;;;;4989228;28;20045;-74
2021/08/15 12:18:07;;;;;;;6.97;3.65;;;;;;;;;;4992509;28;19911;-76
2021/08/15 12:20:43;;;;;;;4.03;2.72;;;;;;;;;;4995658;28;20097;-75
2021/08/15 12:23:09;;;;;;;6.30;3.45;;;;;;;;;;4989767;28;20030;-75
2021/08/15 12:25:35;;;;;;;6.55;3.30;;;;;;;;;;4998607;28;20033;-74
2021/08/15 12:28:09;;;;;;;6.00;2.80;;;;;;;;;;4995419;28;20025;-75
2021/08/15 12:30:36;;;;;;;6.20;3.20;;;;;;;;;;4996120;28;20041;-74
2021/08/15 12:33:21;;;;;;;5.95;2.83;;;;;;;;;;4994916;28;20036;-77
2021/08/15 12:35:56;;;;;;;8.43;3.72;;;;;;;;;;4995421;28;20025;-76
2021/08/15 12:38:29;;;;;;;7.07;3.30;;;;;;;;;;4995186;28;20030;-74
2021/08/15 12:40:55;;;;;;;5.72;3.05;;;;;;;;;;4992764;28;20038;-76
2021/08/15 12:43:25;;;;;;;6.00;3.35;;;;;;;;;;4993045;28;20037;-75
2021/08/15 12:45:51;;;;;;;9.43;4.07;;;;;;;;;;4996666;28;20103;-76
2021/08/15 12:48:18;;;;;;;5.95;3.30;;;;;;;;;;4995929;28;20026;-76
2021/08/15 12:50:48;;;;;;;7.15;3.30;;;;;;;;;;4995417;28;20022;-74
2021/08/15 12:53:20;;;;;;;13.60;5.63;;;;;;;;;;4987095;28;20030;-73
2021/08/15 12:55:47;;;;;;;9.40;4.57;;;;;;;;;;4994621;28;20044;-73
2021/08/15 12:58:13;;;;;;;6.90;4.60;;;;;;;;;;4992480;28;20370;-74
2021/08/15 13:00:43;;;;;;;9.98;5.45;;;;;;;;;;4987573;28;20030;-75
2021/08/15 13:03:15;;;;;;;6.57;3.60;;;;;;;;;;4993649;28;20113;-76
2021/08/15 13:05:41;;;;;;;29.27;23.70;;;;;;;;;;4989963;28;20387;-77
2021/08/15 13:08:08;;;;;;;177.07;91.95;;;;;;;;;;4993110;28;20054;-79
2021/08/15 13:10:35;;;;;;;45.55;33.35;;;;;;;;;;4985725;28;20065;-73
2021/08/15 13:13:01;;;;;;;7.78;5.13;;;;;;;;;;4995268;28;20022;-75
2021/08/15 13:15:27;;;;;;;35.90;19.75;;;;;;;;;;4983969;28;20438;-75
2021/08/15 13:17:53;;;;;;;226.68;149.43;;;;;;;;;;4991469;28;20030;-76
2021/08/15 13:20:21;;;;;;;18.92;11.25;;;;;;;;;;4983161;28;20031;-76
2021/08/15 13:22:47;;;;;;;7.38;4.82;;;;;;;;;;4984135;28;20045;-75
2021/08/15 13:25:14;;;;;;;246.80;175.38;;;;;;;;;;4980275;28;20034;-75
2021/08/15 13:27:40;;;;;;;111.82;70.60;;;;;;;;;;4982721;28;20029;-75
2021/08/15 13:30:06;;;;;;;26.85;16.73;;;;;;;;;;4986149;28;20034;-75
2021/08/15 13:32:32;;;;;;;15.13;10.27;;;;;;;;;;4980195;28;20126;-76
2021/08/15 13:34:58;;;;;;;51.63;33.88;;;;;;;;;;4984665;28;20031;-75
2021/08/15 13:37:25;;;;;;;9.77;4.43;;;;;;;;;;4980952;28;20034;-75
2021/08/15 13:39:59;;;;;;;16.23;11.85;;;;;;;;;;4981020;28;20450;-76
2021/08/15 13:42:27;;;;;;;16.48;9.35;;;;;;;;;;4981487;28;20034;-75
2021/08/15 13:44:54;;;;;;;9.27;4.10;;;;;;;;;;4982906;28;20018;-74
2021/08/15 13:47:21;;;;;;;16.50;10.18;;;;;;;;;;4977052;28;20022;-72
2021/08/15 13:49:47;;;;;;;9.48;5.03;;;;;;;;;;4980664;28;20022;-76
2021/08/15 13:52:13;;;;;;;7.10;3.55;;;;;;;;;;4981093;28;20018;-75
2021/08/15 13:54:40;;;;;;;8.63;3.50;;;;;;;;;;4990033;28;20374;-78
2021/08/15 13:57:06;;;;;;;6.90;3.95;;;;;;;;;;4987815;28;20066;-78
2021/08/15 13:59:32;;;;;;;17.50;8.85;;;;;;;;;;4984071;28;20036;-76
2021/08/15 14:01:58;;;;;;;7.88;5.28;;;;;;;;;;4984638;28;20125;-77
2021/08/15 14:04:24;;;;;;;8.63;4.70;;;;;;;;;;4985924;28;20392;-77
2021/08/15 14:06:49;;;;;;;6.13;4.50;;;;;;;;;;4982902;28;20042;-77
2021/08/15 14:09:15;;;;;;;8.95;4.45;;;;;;;;;;4978917;28;20022;-77
2021/08/15 14:11:42;;;;;;;7.15;4.07;;;;;;;;;;4983216;28;20689;-76
2021/08/15 14:14:08;;;;;;;4.95;3.80;;;;;;;;;;4982413;28;20805;-76
2021/08/15 14:16:34;;;;;;;7.03;4.32;;;;;;;;;;4986484;28;20103;-77
2021/08/15 14:19:00;;;;;;;8.57;3.88;;;;;;;;;;4986684;28;20031;-76
2021/08/15 14:21:26;;;;;;;6.70;3.47;;;;;;;;;;4983066;28;20386;-77
2021/08/15 14:23:52;;;;;;;6.75;3.90;;;;;;;;;;4981061;28;20030;-76
2021/08/15 14:26:19;;;;;;;7.30;4.13;;;;;;;;;;4986060;28;20035;-75
2021/08/15 14:28:44;;;;;;;10.57;4.50;;;;;;;;;;4987751;28;20105;-76
2021/08/15 14:31:10;;;;;;;10.05;4.20;;;;;;;;;;4977045;28;20335;-77
2021/08/15 14:33:36;;;;;;;7.28;3.90;;;;;;;;;;4984311;28;20564;-76
2021/08/15 14:36:02;;;;;;;6.38;3.55;;;;;;;;;;4983778;28;20018;-76
2021/08/15 14:38:28;;;;;;;5.40;3.88;;;;;;;;;;4983738;28;20121;-76
2021/08/15 14:40:54;;;;;;;8.88;3.70;;;;;;;;;;4979625;28;20034;-75
2021/08/15 14:43:20;;;;;;;8.75;4.25;;;;;;;;;;4986596;28;20511;-76